sensor_id;sensor_type;location;lat;lon;timestamp;P1;durP1;ratioP1;P2;durP2;ratioP2
20476;SDS011;10397;50.948;11.092;2023-06-24T00:00:22;7.20;;;6.55;;
20476;SDS011;10397;50.948;11.092;2023-06-24T00:02:53;10.03;;;6.75;;
20476;SDS011;10397;50.948;11.092;2023-06-24T00:05:24;6.90;;;6.30;;
20476;SDS011;10397;50.948;11.092;2023-06-24T00:07:56;8.28;;;7.35;;
20476;SDS011;10397;50.948;11.092;2023-06-24T00:10:28;7.50;;;6.75;;
20476;SDS011;10397;50.948;11.092;2023-06-24T00:12:59;9.00;;;6.10;;
20476;SDS011;10397;50.948;11.092;2023-06-24T00:15:30;10.38;;;7.30;;
20476;SDS011;10397;50.948;11.092;2023-06-24T00:18:02;7.78;;;6.67;;
20476;SDS011;10397;50.948;11.092;2023-06-24T00:20:33;6.60;;;6.10;;
20476;SDS011;10397;50.948;11.092;2023-06-24T00:23:05;7.80;;;6.78;;
20476;SDS011;10397;50.948;11.092;2023-06-24T00:25:36;7.05;;;6.40;;
20476;SDS011;10397;50.948;11.092;2023-06-24T00:28:08;9.05;;;6.62;;
20476;SDS011;10397;50.948;11.092;2023-06-24T00:30:40;7.97;;;6.87;;
20476;SDS011;10397;50.948;11.092;2023-06-24T00:33:11;12.50;;;6.22;;
20476;SDS011;10397;50.948;11.092;2023-06-24T00:35:43;7.75;;;6.58;;
20476;SDS011;10397;50.948;11.092;2023-06-24T00:38:14;11.60;;;5.92;;
20476;SDS011;10397;50.948;11.092;2023-06-24T00:40:46;7.75;;;6.62;;
20476;SDS011;10397;50.948;11.092;2023-06-24T00:43:17;7.30;;;5.85;;
20476;SDS011;10397;50.948;11.092;2023-06-24T00:45:49;9.57;;;6.30;;
20476;SDS011;10397;50.948;11.092;2023-06-24T00:48:19;9.40;;;5.33;;
20476;SDS011;10397;50.948;11.092;2023-06-24T00:50:50;6.95;;;6.33;;
20476;SDS011;10397;50.948;11.092;2023-06-24T00:53:21;7.07;;;6.47;;
20476;SDS011;10397;50.948;11.092;2023-06-24T00:55:53;9.83;;;5.75;;
20476;SDS011;10397;50.948;11.092;2023-06-24T00:58:24;7.45;;;5.80;;
20476;SDS011;10397;50.948;11.092;2023-06-24T01:00:56;6.20;;;5.60;;
20476;SDS011;10397;50.948;11.092;2023-06-24T01:03:27;8.28;;;6.75;;
20476;SDS011;10397;50.948;11.092;2023-06-24T01:05:58;6.35;;;5.55;;
20476;SDS011;10397;50.948;11.092;2023-06-24T01:08:29;5.83;;;5.30;;
20476;SDS011;10397;50.948;11.092;2023-06-24T01:11:00;5.27;;;4.80;;
20476;SDS011;10397;50.948;11.092;2023-06-24T01:13:32;6.60;;;5.83;;
20476;SDS011;10397;50.948;11.092;2023-06-24T01:16:05;7.33;;;6.07;;
20476;SDS011;10397;50.948;11.092;2023-06-24T01:18:35;7.55;;;5.58;;
20476;SDS011;10397;50.948;11.092;2023-06-24T01:21:15;6.17;;;5.60;;
20476;SDS011;10397;50.948;11.092;2023-06-24T01:24:07;7.07;;;6.37;;
20476;SDS011;10397;50.948;11.092;2023-06-24T01:35:08;7.97;;;5.50;;
20476;SDS011;10397;50.948;11.092;2023-06-24T01:37:47;9.03;;;5.87;;
20476;SDS011;10397;50.948;11.092;2023-06-24T01:40:27;8.18;;;5.67;;
20476;SDS011;10397;50.948;11.092;2023-06-24T01:42:58;5.07;;;4.67;;
20476;SDS011;10397;50.948;11.092;2023-06-24T01:45:29;11.13;;;5.10;;
20476;SDS011;10397;50.948;11.092;2023-06-24T01:48:01;7.35;;;5.40;;
20476;SDS011;10397;50.948;11.092;2023-06-24T01:50:31;7.63;;;5.50;;
20476;SDS011;10397;50.948;11.092;2023-06-24T01:53:02;6.78;;;5.20;;
20476;SDS011;10397;50.948;11.092;2023-06-24T01:55:32;7.03;;;5.83;;
20476;SDS011;10397;50.948;11.092;2023-06-24T01:58:03;5.13;;;4.70;;
20476;SDS011;10397;50.948;11.092;2023-06-24T02:00:34;6.47;;;4.87;;
20476;SDS011;10397;50.948;11.092;2023-06-24T02:03:05;7.12;;;5.37;;
20476;SDS011;10397;50.948;11.092;2023-06-24T02:05:36;6.23;;;5.63;;
20476;SDS011;10397;50.948;11.092;2023-06-24T02:08:10;7.17;;;5.87;;
20476;SDS011;10397;50.948;11.092;2023-06-24T02:10:41;8.80;;;6.40;;
20476;SDS011;10397;50.948;11.092;2023-06-24T02:13:12;6.30;;;5.70;;
20476;SDS011;10397;50.948;11.092;2023-06-24T02:15:44;5.95;;;5.22;;
20476;SDS011;10397;50.948;11.092;2023-06-24T02:18:15;6.35;;;5.75;;
20476;SDS011;10397;50.948;11.092;2023-06-24T02:20:46;5.80;;;5.30;;
20476;SDS011;10397;50.948;11.092;2023-06-24T02:23:17;6.37;;;5.87;;
20476;SDS011;10397;50.948;11.092;2023-06-24T02:25:49;9.48;;;5.65;;
20476;SDS011;10397;50.948;11.092;2023-06-24T02:28:19;6.53;;;5.92;;
20476;SDS011;10397;50.948;11.092;2023-06-24T02:30:50;6.63;;;5.47;;
20476;SDS011;10397;50.948;11.092;2023-06-24T02:33:21;8.03;;;5.53;;
20476;SDS011;10397;50.948;11.092;2023-06-24T02:35:52;6.60;;;5.40;;
20476;SDS011;10397;50.948;11.092;2023-06-24T02:38:24;6.67;;;6.08;;
20476;SDS011;10397;50.948;11.092;2023-06-24T02:40:55;5.85;;;5.17;;
20476;SDS011;10397;50.948;11.092;2023-06-24T02:43:26;6.80;;;5.87;;
20476;SDS011;10397;50.948;11.092;2023-06-24T02:45:58;7.40;;;5.22;;
20476;SDS011;10397;50.948;11.092;2023-06-24T02:48:29;6.73;;;5.80;;
20476;SDS011;10397;50.948;11.092;2023-06-24T02:50:59;7.07;;;6.17;;
20476;SDS011;10397;50.948;11.092;2023-06-24T02:53:30;7.37;;;5.78;;
20476;SDS011;10397;50.948;11.092;2023-06-24T02:56:02;7.35;;;6.67;;
20476;SDS011;10397;50.948;11.092;2023-06-24T02:58:33;11.25;;;6.30;;
20476;SDS011;10397;50.948;11.092;2023-06-24T03:01:04;8.15;;;6.90;;
20476;SDS011;10397;50.948;11.092;2023-06-24T03:03:35;10.83;;;6.63;;
20476;SDS011;10397;50.948;11.092;2023-06-24T03:06:06;6.72;;;6.12;;
20476;SDS011;10397;50.948;11.092;2023-06-24T03:08:37;7.17;;;6.42;;
20476;SDS011;10397;50.948;11.092;2023-06-24T03:11:08;7.30;;;6.22;;
20476;SDS011;10397;50.948;11.092;2023-06-24T03:13:40;8.70;;;6.83;;
20476;SDS011;10397;50.948;11.092;2023-06-24T03:16:10;8.10;;;6.27;;
20476;SDS011;10397;50.948;11.092;2023-06-24T03:18:43;6.80;;;6.20;;
20476;SDS011;10397;50.948;11.092;2023-06-24T03:21:11;7.12;;;6.47;;
20476;SDS011;10397;50.948;11.092;2023-06-24T03:23:43;11.55;;;6.70;;
20476;SDS011;10397;50.948;11.092;2023-06-24T03:26:14;9.25;;;6.80;;
20476;SDS011;10397;50.948;11.092;2023-06-24T03:28:46;9.83;;;7.03;;
20476;SDS011;10397;50.948;11.092;2023-06-24T03:31:17;12.03;;;6.67;;
20476;SDS011;10397;50.948;11.092;2023-06-24T03:33:49;8.38;;;6.55;;
20476;SDS011;10397;50.948;11.092;2023-06-24T03:36:21;11.08;;;6.65;;
20476;SDS011;10397;50.948;11.092;2023-06-24T03:38:52;10.85;;;7.00;;
20476;SDS011;10397;50.948;11.092;2023-06-24T03:41:23;7.45;;;6.37;;
20476;SDS011;10397;50.948;11.092;2023-06-24T03:43:55;10.10;;;7.08;;
20476;SDS011;10397;50.948;11.092;2023-06-24T03:46:26;7.57;;;6.47;;
20476;SDS011;10397;50.948;11.092;2023-06-24T03:48:57;8.23;;;6.30;;
20476;SDS011;10397;50.948;11.092;2023-06-24T03:51:28;8.85;;;6.45;;
20476;SDS011;10397;50.948;11.092;2023-06-24T03:53:59;6.37;;;5.78;;
20476;SDS011;10397;50.948;11.092;2023-06-24T03:56:30;8.20;;;6.28;;
20476;SDS011;10397;50.948;11.092;2023-06-24T03:59:01;13.60;;;6.83;;
20476;SDS011;10397;50.948;11.092;2023-06-24T04:01:33;7.33;;;6.55;;
20476;SDS011;10397;50.948;11.092;2023-06-24T04:04:05;5.97;;;5.37;;
20476;SDS011;10397;50.948;11.092;2023-06-24T04:06:36;6.47;;;5.87;;
20476;SDS011;10397;50.948;11.092;2023-06-24T04:09:08;7.10;;;5.72;;
20476;SDS011;10397;50.948;11.092;2023-06-24T04:11:38;6.90;;;5.97;;
20476;SDS011;10397;50.948;11.092;2023-06-24T04:14:09;6.33;;;5.67;;
20476;SDS011;10397;50.948;11.092;2023-06-24T04:16:40;8.95;;;5.60;;
20476;SDS011;10397;50.948;11.092;2023-06-24T04:19:12;7.50;;;6.45;;
20476;SDS011;10397;50.948;11.092;2023-06-24T04:21:43;6.87;;;5.97;;
20476;SDS011;10397;50.948;11.092;2023-06-24T04:24:15;7.40;;;5.40;;
20476;SDS011;10397;50.948;11.092;2023-06-24T04:26:47;9.55;;;5.10;;
20476;SDS011;10397;50.948;11.092;2023-06-24T04:29:19;5.70;;;5.20;;
20476;SDS011;10397;50.948;11.092;2023-06-24T04:31:50;8.47;;;6.23;;
20476;SDS011;10397;50.948;11.092;2023-06-24T04:34:21;6.00;;;5.50;;
20476;SDS011;10397;50.948;11.092;2023-06-24T04:36:52;8.13;;;4.97;;
20476;SDS011;10397;50.948;11.092;2023-06-24T04:39:23;7.83;;;4.90;;
20476;SDS011;10397;50.948;11.092;2023-06-24T04:41:55;5.67;;;5.15;;
20476;SDS011;10397;50.948;11.092;2023-06-24T04:44:26;8.30;;;6.53;;
20476;SDS011;10397;50.948;11.092;2023-06-24T04:46:57;6.08;;;5.40;;
20476;SDS011;10397;50.948;11.092;2023-06-24T04:49:29;8.45;;;5.37;;
20476;SDS011;10397;50.948;11.092;2023-06-24T04:52:00;5.80;;;5.20;;
20476;SDS011;10397;50.948;11.092;2023-06-24T04:54:32;5.53;;;4.92;;
20476;SDS011;10397;50.948;11.092;2023-06-24T04:57:05;10.87;;;5.67;;
20476;SDS011;10397;50.948;11.092;2023-06-24T04:59:34;8.18;;;5.75;;
20476;SDS011;10397;50.948;11.092;2023-06-24T05:02:05;8.50;;;6.27;;
20476;SDS011;10397;50.948;11.092;2023-06-24T05:04:36;10.38;;;6.25;;
20476;SDS011;10397;50.948;11.092;2023-06-24T05:07:08;8.23;;;5.80;;
20476;SDS011;10397;50.948;11.092;2023-06-24T05:09:39;7.22;;;6.33;;
20476;SDS011;10397;50.948;11.092;2023-06-24T05:12:10;8.03;;;6.08;;
20476;SDS011;10397;50.948;11.092;2023-06-24T05:14:41;9.30;;;6.27;;
20476;SDS011;10397;50.948;11.092;2023-06-24T05:17:11;6.60;;;5.90;;
20476;SDS011;10397;50.948;11.092;2023-06-24T05:19:43;13.73;;;5.20;;
20476;SDS011;10397;50.948;11.092;2023-06-24T05:22:14;8.13;;;5.80;;
20476;SDS011;10397;50.948;11.092;2023-06-24T05:24:46;7.47;;;5.83;;
20476;SDS011;10397;50.948;11.092;2023-06-24T05:27:17;6.63;;;6.03;;
20476;SDS011;10397;50.948;11.092;2023-06-24T05:29:48;8.43;;;6.00;;
20476;SDS011;10397;50.948;11.092;2023-06-24T05:32:20;6.85;;;5.87;;
20476;SDS011;10397;50.948;11.092;2023-06-24T05:34:51;6.40;;;5.12;;
20476;SDS011;10397;50.948;11.092;2023-06-24T05:37:21;6.17;;;5.57;;
20476;SDS011;10397;50.948;11.092;2023-06-24T05:39:53;6.05;;;5.45;;
20476;SDS011;10397;50.948;11.092;2023-06-24T05:42:24;9.95;;;5.95;;
20476;SDS011;10397;50.948;11.092;2023-06-24T05:44:56;10.63;;;5.25;;
20476;SDS011;10397;50.948;11.092;2023-06-24T05:47:27;5.45;;;5.00;;
20476;SDS011;10397;50.948;11.092;2023-06-24T05:49:59;8.05;;;5.40;;
20476;SDS011;10397;50.948;11.092;2023-06-24T05:52:31;6.05;;;5.40;;
20476;SDS011;10397;50.948;11.092;2023-06-24T05:55:02;9.85;;;5.05;;
20476;SDS011;10397;50.948;11.092;2023-06-24T05:57:34;5.83;;;5.22;;
20476;SDS011;10397;50.948;11.092;2023-06-24T06:00:05;5.55;;;5.05;;
20476;SDS011;10397;50.948;11.092;2023-06-24T06:02:36;7.27;;;4.90;;
20476;SDS011;10397;50.948;11.092;2023-06-24T06:05:08;5.67;;;4.70;;
20476;SDS011;10397;50.948;11.092;2023-06-24T06:07:39;7.83;;;5.08;;
20476;SDS011;10397;50.948;11.092;2023-06-24T06:10:10;6.03;;;4.80;;
20476;SDS011;10397;50.948;11.092;2023-06-24T06:12:41;4.80;;;4.40;;
20476;SDS011;10397;50.948;11.092;2023-06-24T06:15:13;5.17;;;4.53;;
20476;SDS011;10397;50.948;11.092;2023-06-24T06:17:45;6.80;;;5.28;;
20476;SDS011;10397;50.948;11.092;2023-06-24T06:20:15;5.08;;;4.58;;
20476;SDS011;10397;50.948;11.092;2023-06-24T06:22:47;5.35;;;4.87;;
20476;SDS011;10397;50.948;11.092;2023-06-24T06:25:18;8.88;;;4.83;;
20476;SDS011;10397;50.948;11.092;2023-06-24T06:27:50;5.75;;;5.03;;
20476;SDS011;10397;50.948;11.092;2023-06-24T06:30:21;5.40;;;4.90;;
20476;SDS011;10397;50.948;11.092;2023-06-24T06:32:52;5.87;;;4.80;;
20476;SDS011;10397;50.948;11.092;2023-06-24T06:35:23;13.60;;;5.27;;
20476;SDS011;10397;50.948;11.092;2023-06-24T06:37:54;4.47;;;4.00;;
20476;SDS011;10397;50.948;11.092;2023-06-24T06:40:25;4.80;;;4.30;;
20476;SDS011;10397;50.948;11.092;2023-06-24T06:42:56;5.08;;;4.28;;
20476;SDS011;10397;50.948;11.092;2023-06-24T06:45:28;6.78;;;4.50;;
20476;SDS011;10397;50.948;11.092;2023-06-24T06:47:59;5.50;;;4.33;;
20476;SDS011;10397;50.948;11.092;2023-06-24T06:50:31;7.40;;;4.10;;
20476;SDS011;10397;50.948;11.092;2023-06-24T06:53:02;4.37;;;3.87;;
20476;SDS011;10397;50.948;11.092;2023-06-24T06:55:34;3.60;;;3.30;;
20476;SDS011;10397;50.948;11.092;2023-06-24T06:58:04;6.17;;;3.73;;
20476;SDS011;10397;50.948;11.092;2023-06-24T07:00:35;7.62;;;3.77;;
20476;SDS011;10397;50.948;11.092;2023-06-24T07:03:07;7.15;;;4.30;;
20476;SDS011;10397;50.948;11.092;2023-06-24T07:05:38;4.47;;;3.83;;
20476;SDS011;10397;50.948;11.092;2023-06-24T07:08:10;4.37;;;3.42;;
20476;SDS011;10397;50.948;11.092;2023-06-24T07:13:12;9.15;;;3.47;;
20476;SDS011;10397;50.948;11.092;2023-06-24T07:15:43;6.53;;;3.33;;
20476;SDS011;10397;50.948;11.092;2023-06-24T07:18:14;7.60;;;3.57;;
20476;SDS011;10397;50.948;11.092;2023-06-24T07:20:45;7.33;;;4.03;;
20476;SDS011;10397;50.948;11.092;2023-06-24T07:23:16;3.80;;;3.50;;
20476;SDS011;10397;50.948;11.092;2023-06-24T07:25:47;8.03;;;4.17;;
20476;SDS011;10397;50.948;11.092;2023-06-24T07:28:18;8.03;;;3.83;;
20476;SDS011;10397;50.948;11.092;2023-06-24T07:30:49;6.00;;;3.90;;
20476;SDS011;10397;50.948;11.092;2023-06-24T07:33:19;4.53;;;3.50;;
20476;SDS011;10397;50.948;11.092;2023-06-24T07:35:50;4.53;;;3.27;;
20476;SDS011;10397;50.948;11.092;2023-06-24T07:38:21;6.83;;;2.80;;
20476;SDS011;10397;50.948;11.092;2023-06-24T07:40:53;7.33;;;3.17;;
20476;SDS011;10397;50.948;11.092;2023-06-24T07:43:24;4.93;;;3.57;;
20476;SDS011;10397;50.948;11.092;2023-06-24T07:45:55;5.87;;;3.70;;
20476;SDS011;10397;50.948;11.092;2023-06-24T07:48:26;4.43;;;3.47;;
20476;SDS011;10397;50.948;11.092;2023-06-24T07:50:57;6.87;;;3.13;;
20476;SDS011;10397;50.948;11.092;2023-06-24T07:53:27;9.33;;;3.90;;
20476;SDS011;10397;50.948;11.092;2023-06-24T07:55:58;3.83;;;3.43;;
20476;SDS011;10397;50.948;11.092;2023-06-24T07:58:28;6.03;;;3.43;;
20476;SDS011;10397;50.948;11.092;2023-06-24T08:01:00;4.73;;;2.50;;
20476;SDS011;10397;50.948;11.092;2023-06-24T08:03:30;6.70;;;2.67;;
20476;SDS011;10397;50.948;11.092;2023-06-24T08:06:01;6.63;;;2.70;;
20476;SDS011;10397;50.948;11.092;2023-06-24T08:08:31;3.33;;;2.27;;
20476;SDS011;10397;50.948;11.092;2023-06-24T08:11:02;2.70;;;1.90;;
20476;SDS011;10397;50.948;11.092;2023-06-24T08:13:33;4.27;;;2.03;;
20476;SDS011;10397;50.948;11.092;2023-06-24T08:16:04;4.23;;;2.20;;
20476;SDS011;10397;50.948;11.092;2023-06-24T08:18:35;2.70;;;1.60;;
20476;SDS011;10397;50.948;11.092;2023-06-24T08:21:05;2.87;;;1.63;;
20476;SDS011;10397;50.948;11.092;2023-06-24T08:23:36;2.93;;;1.83;;
20476;SDS011;10397;50.948;11.092;2023-06-24T08:26:07;2.10;;;1.70;;
20476;SDS011;10397;50.948;11.092;2023-06-24T08:28:38;2.90;;;2.00;;
20476;SDS011;10397;50.948;11.092;2023-06-24T08:31:09;3.80;;;1.80;;
20476;SDS011;10397;50.948;11.092;2023-06-24T08:33:44;3.13;;;2.20;;
20476;SDS011;10397;50.948;11.092;2023-06-24T08:36:14;3.83;;;1.40;;
20476;SDS011;10397;50.948;11.092;2023-06-24T08:38:45;3.67;;;1.63;;
20476;SDS011;10397;50.948;11.092;2023-06-24T08:41:16;4.33;;;2.13;;
20476;SDS011;10397;50.948;11.092;2023-06-24T08:43:46;2.30;;;1.87;;
20476;SDS011;10397;50.948;11.092;2023-06-24T08:46:17;3.20;;;1.67;;
20476;SDS011;10397;50.948;11.092;2023-06-24T08:48:48;3.37;;;2.20;;
20476;SDS011;10397;50.948;11.092;2023-06-24T08:51:18;4.50;;;2.60;;
20476;SDS011;10397;50.948;11.092;2023-06-24T08:53:48;5.80;;;1.93;;
20476;SDS011;10397;50.948;11.092;2023-06-24T08:56:19;4.17;;;2.10;;
20476;SDS011;10397;50.948;11.092;2023-06-24T08:58:50;3.57;;;1.80;;
20476;SDS011;10397;50.948;11.092;2023-06-24T09:01:21;3.27;;;1.83;;
20476;SDS011;10397;50.948;11.092;2023-06-24T09:03:52;59.93;;;4.10;;
20476;SDS011;10397;50.948;11.092;2023-06-24T09:06:23;3.17;;;2.00;;
20476;SDS011;10397;50.948;11.092;2023-06-24T09:08:54;3.00;;;1.40;;
20476;SDS011;10397;50.948;11.092;2023-06-24T09:11:25;2.97;;;1.50;;
20476;SDS011;10397;50.948;11.092;2023-06-24T09:13:58;5.30;;;1.43;;
20476;SDS011;10397;50.948;11.092;2023-06-24T09:16:29;2.43;;;1.53;;
20476;SDS011;10397;50.948;11.092;2023-06-24T09:18:59;2.53;;;1.57;;
20476;SDS011;10397;50.948;11.092;2023-06-24T09:21:31;4.23;;;1.90;;
20476;SDS011;10397;50.948;11.092;2023-06-24T09:24:02;3.20;;;2.13;;
20476;SDS011;10397;50.948;11.092;2023-06-24T09:26:32;4.50;;;2.13;;
20476;SDS011;10397;50.948;11.092;2023-06-24T09:29:04;5.50;;;1.80;;
20476;SDS011;10397;50.948;11.092;2023-06-24T09:31:34;2.40;;;1.47;;
20476;SDS011;10397;50.948;11.092;2023-06-24T09:34:05;3.70;;;1.53;;
20476;SDS011;10397;50.948;11.092;2023-06-24T09:36:36;2.10;;;1.40;;
20476;SDS011;10397;50.948;11.092;2023-06-24T09:39:06;1.47;;;1.37;;
20476;SDS011;10397;50.948;11.092;2023-06-24T09:41:41;3.80;;;1.40;;
20476;SDS011;10397;50.948;11.092;2023-06-24T09:44:11;1.73;;;1.10;;
20476;SDS011;10397;50.948;11.092;2023-06-24T09:46:42;3.70;;;1.43;;
20476;SDS011;10397;50.948;11.092;2023-06-24T09:49:13;2.47;;;1.50;;
20476;SDS011;10397;50.948;11.092;2023-06-24T09:51:44;3.57;;;1.50;;
20476;SDS011;10397;50.948;11.092;2023-06-24T09:54:14;14.07;;;3.07;;
20476;SDS011;10397;50.948;11.092;2023-06-24T09:56:50;4.40;;;1.50;;
20476;SDS011;10397;50.948;11.092;2023-06-24T09:59:23;1.70;;;1.40;;
20476;SDS011;10397;50.948;11.092;2023-06-24T10:01:54;3.57;;;1.40;;
20476;SDS011;10397;50.948;11.092;2023-06-24T10:04:25;4.07;;;1.50;;
20476;SDS011;10397;50.948;11.092;2023-06-24T10:06:56;8.80;;;1.90;;
20476;SDS011;10397;50.948;11.092;2023-06-24T10:09:27;2.00;;;1.70;;
20476;SDS011;10397;50.948;11.092;2023-06-24T10:11:58;2.00;;;1.77;;
20476;SDS011;10397;50.948;11.092;2023-06-24T10:14:28;2.70;;;1.80;;
20476;SDS011;10397;50.948;11.092;2023-06-24T10:17:02;1.50;;;1.40;;
20476;SDS011;10397;50.948;11.092;2023-06-24T10:19:38;2.87;;;1.60;;
20476;SDS011;10397;50.948;11.092;2023-06-24T10:22:09;1.80;;;1.60;;
20476;SDS011;10397;50.948;11.092;2023-06-24T10:24:39;2.83;;;1.80;;
20476;SDS011;10397;50.948;11.092;2023-06-24T10:27:16;2.67;;;1.60;;
20476;SDS011;10397;50.948;11.092;2023-06-24T10:29:46;4.77;;;1.73;;
20476;SDS011;10397;50.948;11.092;2023-06-24T10:32:17;2.37;;;1.70;;
20476;SDS011;10397;50.948;11.092;2023-06-24T10:34:47;2.33;;;1.83;;
20476;SDS011;10397;50.948;11.092;2023-06-24T10:37:19;2.03;;;1.50;;
20476;SDS011;10397;50.948;11.092;2023-06-24T10:39:57;2.63;;;2.00;;
20476;SDS011;10397;50.948;11.092;2023-06-24T10:42:30;2.27;;;1.63;;
20476;SDS011;10397;50.948;11.092;2023-06-24T10:47:42;6.07;;;2.33;;
20476;SDS011;10397;50.948;11.092;2023-06-24T10:50:13;2.40;;;1.63;;
20476;SDS011;10397;50.948;11.092;2023-06-24T10:52:44;2.90;;;1.77;;
20476;SDS011;10397;50.948;11.092;2023-06-24T10:55:14;3.40;;;1.90;;
20476;SDS011;10397;50.948;11.092;2023-06-24T10:57:46;2.03;;;1.83;;
20476;SDS011;10397;50.948;11.092;2023-06-24T11:00:18;4.50;;;2.67;;
20476;SDS011;10397;50.948;11.092;2023-06-24T11:02:48;3.17;;;2.20;;
20476;SDS011;10397;50.948;11.092;2023-06-24T11:05:19;2.40;;;2.20;;
20476;SDS011;10397;50.948;11.092;2023-06-24T11:07:50;3.83;;;2.00;;
20476;SDS011;10397;50.948;11.092;2023-06-24T11:10:21;3.40;;;2.33;;
20476;SDS011;10397;50.948;11.092;2023-06-24T11:12:52;3.03;;;1.50;;
20476;SDS011;10397;50.948;11.092;2023-06-24T11:15:23;3.10;;;1.83;;
20476;SDS011;10397;50.948;11.092;2023-06-24T11:17:53;3.80;;;2.10;;
20476;SDS011;10397;50.948;11.092;2023-06-24T11:20:25;4.20;;;2.40;;
20476;SDS011;10397;50.948;11.092;2023-06-24T11:22:55;2.73;;;1.97;;
20476;SDS011;10397;50.948;11.092;2023-06-24T11:25:26;2.97;;;1.70;;
20476;SDS011;10397;50.948;11.092;2023-06-24T11:27:57;3.13;;;2.03;;
20476;SDS011;10397;50.948;11.092;2023-06-24T11:30:28;3.83;;;2.60;;
20476;SDS011;10397;50.948;11.092;2023-06-24T11:32:59;2.87;;;2.40;;
20476;SDS011;10397;50.948;11.092;2023-06-24T11:35:42;4.60;;;2.50;;
20476;SDS011;10397;50.948;11.092;2023-06-24T11:38:21;3.00;;;2.70;;
20476;SDS011;10397;50.948;11.092;2023-06-24T11:40:48;4.73;;;3.10;;
20476;SDS011;10397;50.948;11.092;2023-06-24T11:43:18;3.87;;;3.27;;
20476;SDS011;10397;50.948;11.092;2023-06-24T11:45:49;3.57;;;2.37;;
20476;SDS011;10397;50.948;11.092;2023-06-24T11:48:20;5.10;;;2.40;;
20476;SDS011;10397;50.948;11.092;2023-06-24T11:50:53;3.50;;;2.50;;
20476;SDS011;10397;50.948;11.092;2023-06-24T11:53:29;3.73;;;2.27;;
20476;SDS011;10397;50.948;11.092;2023-06-24T11:56:12;3.43;;;2.53;;
20476;SDS011;10397;50.948;11.092;2023-06-24T11:58:42;3.90;;;2.77;;
20476;SDS011;10397;50.948;11.092;2023-06-24T12:01:12;5.53;;;2.57;;
20476;SDS011;10397;50.948;11.092;2023-06-24T12:03:43;28.17;;;3.40;;
20476;SDS011;10397;50.948;11.092;2023-06-24T12:06:14;2.53;;;2.10;;
20476;SDS011;10397;50.948;11.092;2023-06-24T12:08:46;2.70;;;2.03;;
20476;SDS011;10397;50.948;11.092;2023-06-24T12:11:17;2.53;;;2.33;;
20476;SDS011;10397;50.948;11.092;2023-06-24T12:13:48;2.87;;;2.40;;
20476;SDS011;10397;50.948;11.092;2023-06-24T12:16:18;3.33;;;2.40;;
20476;SDS011;10397;50.948;11.092;2023-06-24T12:18:48;2.30;;;2.10;;
20476;SDS011;10397;50.948;11.092;2023-06-24T12:21:20;3.37;;;1.90;;
20476;SDS011;10397;50.948;11.092;2023-06-24T12:23:50;3.40;;;2.40;;
20476;SDS011;10397;50.948;11.092;2023-06-24T12:26:21;2.30;;;2.10;;
20476;SDS011;10397;50.948;11.092;2023-06-24T12:28:55;3.67;;;1.87;;
20476;SDS011;10397;50.948;11.092;2023-06-24T12:31:26;2.23;;;2.00;;
20476;SDS011;10397;50.948;11.092;2023-06-24T12:33:56;1.70;;;1.60;;
20476;SDS011;10397;50.948;11.092;2023-06-24T12:36:27;2.23;;;2.03;;
20476;SDS011;10397;50.948;11.092;2023-06-24T12:38:58;4.63;;;2.53;;
20476;SDS011;10397;50.948;11.092;2023-06-24T12:41:34;2.53;;;2.00;;
20476;SDS011;10397;50.948;11.092;2023-06-24T12:44:08;3.60;;;2.23;;
20476;SDS011;10397;50.948;11.092;2023-06-24T12:46:39;5.47;;;2.03;;
20476;SDS011;10397;50.948;11.092;2023-06-24T12:49:10;3.13;;;1.93;;
20476;SDS011;10397;50.948;11.092;2023-06-24T12:51:40;3.03;;;2.13;;
20476;SDS011;10397;50.948;11.092;2023-06-24T12:54:11;2.43;;;2.10;;
20476;SDS011;10397;50.948;11.092;2023-06-24T12:56:42;4.17;;;1.80;;
20476;SDS011;10397;50.948;11.092;2023-06-24T12:59:13;2.53;;;2.33;;
20476;SDS011;10397;50.948;11.092;2023-06-24T13:01:44;2.20;;;1.83;;
20476;SDS011;10397;50.948;11.092;2023-06-24T13:04:15;2.50;;;1.93;;
20476;SDS011;10397;50.948;11.092;2023-06-24T13:06:46;3.63;;;2.60;;
20476;SDS011;10397;50.948;11.092;2023-06-24T13:09:17;10.27;;;2.00;;
20476;SDS011;10397;50.948;11.092;2023-06-24T13:11:48;5.60;;;2.60;;
20476;SDS011;10397;50.948;11.092;2023-06-24T13:14:19;2.97;;;1.93;;
20476;SDS011;10397;50.948;11.092;2023-06-24T13:16:49;2.67;;;2.10;;
20476;SDS011;10397;50.948;11.092;2023-06-24T13:19:20;7.17;;;1.80;;
20476;SDS011;10397;50.948;11.092;2023-06-24T13:21:51;5.00;;;2.23;;
20476;SDS011;10397;50.948;11.092;2023-06-24T13:24:23;5.23;;;1.90;;
20476;SDS011;10397;50.948;11.092;2023-06-24T13:26:53;3.10;;;1.83;;
20476;SDS011;10397;50.948;11.092;2023-06-24T13:29:24;2.23;;;1.77;;
20476;SDS011;10397;50.948;11.092;2023-06-24T13:31:55;2.17;;;1.73;;
20476;SDS011;10397;50.948;11.092;2023-06-24T13:34:26;2.20;;;1.63;;
20476;SDS011;10397;50.948;11.092;2023-06-24T13:36:57;2.70;;;1.67;;
20476;SDS011;10397;50.948;11.092;2023-06-24T13:39:28;1.53;;;1.37;;
20476;SDS011;10397;50.948;11.092;2023-06-24T13:41:58;5.80;;;1.50;;
20476;SDS011;10397;50.948;11.092;2023-06-24T13:44:29;2.53;;;1.80;;
20476;SDS011;10397;50.948;11.092;2023-06-24T13:47:00;3.40;;;1.70;;
20476;SDS011;10397;50.948;11.092;2023-06-24T13:49:31;3.90;;;1.73;;
20476;SDS011;10397;50.948;11.092;2023-06-24T13:52:03;2.90;;;2.00;;
20476;SDS011;10397;50.948;11.092;2023-06-24T13:54:33;2.73;;;1.90;;
20476;SDS011;10397;50.948;11.092;2023-06-24T13:57:04;3.17;;;1.67;;
20476;SDS011;10397;50.948;11.092;2023-06-24T13:59:35;3.00;;;1.50;;
20476;SDS011;10397;50.948;11.092;2023-06-24T14:02:06;2.07;;;1.60;;
20476;SDS011;10397;50.948;11.092;2023-06-24T14:04:37;2.90;;;1.43;;
20476;SDS011;10397;50.948;11.092;2023-06-24T14:07:07;2.40;;;1.93;;
20476;SDS011;10397;50.948;11.092;2023-06-24T14:09:38;3.67;;;2.10;;
20476;SDS011;10397;50.948;11.092;2023-06-24T14:12:09;2.17;;;1.33;;
20476;SDS011;10397;50.948;11.092;2023-06-24T14:14:39;4.27;;;1.70;;
20476;SDS011;10397;50.948;11.092;2023-06-24T14:17:11;3.20;;;1.67;;
20476;SDS011;10397;50.948;11.092;2023-06-24T14:19:41;4.17;;;1.90;;
20476;SDS011;10397;50.948;11.092;2023-06-24T14:22:13;2.20;;;1.83;;
20476;SDS011;10397;50.948;11.092;2023-06-24T14:24:44;2.47;;;1.60;;
20476;SDS011;10397;50.948;11.092;2023-06-24T14:27:14;1.90;;;1.70;;
20476;SDS011;10397;50.948;11.092;2023-06-24T14:29:45;4.40;;;1.60;;
20476;SDS011;10397;50.948;11.092;2023-06-24T14:32:16;2.00;;;1.80;;
20476;SDS011;10397;50.948;11.092;2023-06-24T14:34:47;2.43;;;2.00;;
20476;SDS011;10397;50.948;11.092;2023-06-24T14:37:18;2.03;;;1.53;;
20476;SDS011;10397;50.948;11.092;2023-06-24T14:39:49;1.80;;;1.40;;
20476;SDS011;10397;50.948;11.092;2023-06-24T14:42:19;1.80;;;1.50;;
20476;SDS011;10397;50.948;11.092;2023-06-24T14:44:50;3.73;;;1.87;;
20476;SDS011;10397;50.948;11.092;2023-06-24T14:47:21;3.17;;;1.50;;
20476;SDS011;10397;50.948;11.092;2023-06-24T14:49:52;2.33;;;1.60;;
20476;SDS011;10397;50.948;11.092;2023-06-24T14:52:22;2.27;;;1.30;;
20476;SDS011;10397;50.948;11.092;2023-06-24T14:54:53;1.67;;;1.57;;
20476;SDS011;10397;50.948;11.092;2023-06-24T14:57:24;5.40;;;1.80;;
20476;SDS011;10397;50.948;11.092;2023-06-24T14:59:55;3.67;;;1.87;;
20476;SDS011;10397;50.948;11.092;2023-06-24T15:02:25;1.93;;;1.30;;
20476;SDS011;10397;50.948;11.092;2023-06-24T15:04:56;2.63;;;1.47;;
20476;SDS011;10397;50.948;11.092;2023-06-24T15:07:27;2.23;;;1.27;;
20476;SDS011;10397;50.948;11.092;2023-06-24T15:09:58;2.90;;;1.60;;